Time;durP1;ratioP1;P1;durP2;ratioP2;P2;SDS_P1;SDS_P2;PMS_P1;PMS_P2;Temp;Humidity;BMP_temperature;BMP_pressure;BME280_temperature;BME280_humidity;BME280_pressure;Samples;Min_cycle;Max_cycle;Signal;HPM_P1;HPM_P2
2022/03/03 00:01:41;;;;;;;122.55;55.42;;;1.40;99.90;;;;;;4893195;29;20052;-81
2022/03/03 00:04:07;;;;;;;125.05;56.92;;;1.40;99.90;;;;;;4893008;29;20091;-81
2022/03/03 00:06:34;;;;;;;120.97;57.40;;;1.30;99.90;;;;;;4892582;29;20053;-81
2022/03/03 00:09:00;;;;;;;125.82;59.03;;;1.30;99.90;;;;;;4893061;29;20049;-81
2022/03/03 00:11:26;;;;;;;121.55;56.03;;;1.90;99.90;;;;;;4892941;29;20100;-81
2022/03/03 00:13:51;;;;;;;131.98;57.50;;;1.30;99.90;;;;;;4876669;29;20044;-81
2022/03/03 00:16:17;;;;;;;127.07;57.03;;;1.20;99.90;;;;;;4896952;29;20497;-80
2022/03/03 00:18:43;;;;;;;125.20;56.88;;;1.20;99.90;;;;;;4909196;29;20398;-81
2022/03/03 00:21:08;;;;;;;135.57;56.38;;;1.20;99.90;;;;;;4891861;29;20079;-81
2022/03/03 00:23:34;;;;;;;118.63;55.85;;;1.20;99.90;;;;;;4893184;29;20154;-81
2022/03/03 00:26:00;;;;;;;115.40;55.88;;;1.80;99.90;;;;;;4892437;29;20053;-81
2022/03/03 00:28:26;;;;;;;124.45;58.58;;;1.20;99.90;;;;;;4891376;29;20092;-81
2022/03/03 00:30:52;;;;;;;123.95;56.55;;;1.20;99.90;;;;;;4876150;29;20493;-81
2022/03/03 00:33:18;;;;;;;119.30;55.30;;;1.20;99.90;;;;;;4892239;29;20454;-81
2022/03/03 00:35:45;;;;;;;116.05;55.78;;;1.20;99.90;;;;;;4876038;29;20052;-81
2022/03/03 00:38:11;;;;;;;115.95;55.60;;;1.10;99.90;;;;;;4892403;29;20056;-81
2022/03/03 00:40:36;;;;;;;128.02;56.08;;;1.10;99.90;;;;;;4876587;29;20116;-80
2022/03/03 00:43:04;;;;;;;112.57;52.15;;;1.10;99.90;;;;;;4891424;29;20064;-81
2022/03/03 00:45:29;;;;;;;107.13;51.65;;;1.00;99.90;;;;;;4876775;29;20553;-81
2022/03/03 00:47:55;;;;;;;117.15;54.83;;;0.90;99.90;;;;;;4876930;29;20055;-81
2022/03/03 00:50:21;;;;;;;112.82;52.65;;;0.90;99.90;;;;;;4875747;29;20056;-81
2022/03/03 00:52:47;;;;;;;109.15;52.45;;;0.90;99.90;;;;;;4892504;29;20084;-81
2022/03/03 00:55:12;;;;;;;106.43;51.60;;;0.90;99.90;;;;;;4892350;29;20268;-81
2022/03/03 00:57:47;;;;;;;114.72;53.38;;;0.80;99.90;;;;;;4874107;29;20516;-81
2022/03/03 01:00:14;;;;;;;106.88;52.58;;;0.80;99.90;;;;;;4876927;29;20052;-81
2022/03/03 01:02:40;;;;;;;109.22;51.83;;;0.70;99.90;;;;;;4891762;29;20063;-81
2022/03/03 01:05:06;;;;;;;104.07;52.22;;;0.70;99.90;;;;;;4876444;29;20041;-81
2022/03/03 01:07:32;;;;;;;117.10;55.33;;;0.70;99.90;;;;;;4876312;29;20045;-81
2022/03/03 01:09:57;;;;;;;108.90;53.65;;;0.70;99.90;;;;;;4891255;29;20055;-81
2022/03/03 01:12:23;;;;;;;112.13;52.90;;;0.60;99.90;;;;;;4891279;29;20056;-82
2022/03/03 01:14:49;;;;;;;109.28;53.75;;;0.60;99.90;;;;;;4891822;29;20045;-81
2022/03/03 01:17:15;;;;;;;111.28;52.72;;;0.60;99.90;;;;;;4891441;29;20060;-81
2022/03/03 01:19:42;;;;;;;119.60;54.05;;;0.60;99.90;;;;;;4907894;29;20056;-81
2022/03/03 01:22:07;;;;;;;101.03;51.63;;;0.50;99.90;;;;;;4907878;29;20091;-81
2022/03/03 01:24:33;;;;;;;116.72;52.70;;;0.50;99.90;;;;;;4907238;29;20496;-81
2022/03/03 01:26:59;;;;;;;115.20;54.58;;;0.40;99.90;;;;;;4891326;29;20052;-81
2022/03/03 01:29:25;;;;;;;105.53;51.72;;;0.40;99.90;;;;;;4891378;29;20044;-81
2022/03/03 01:31:50;;;;;;;107.13;51.55;;;0.30;99.90;;;;;;4891015;29;20075;-81
2022/03/03 01:34:16;;;;;;;106.85;49.97;;;0.30;99.90;;;;;;4891741;29;20446;-82
2022/03/03 01:36:43;;;;;;;103.00;51.60;;;0.20;99.90;;;;;;4876487;29;20044;-81
2022/03/03 01:39:09;;;;;;;102.53;50.97;;;0.10;99.90;;;;;;4875528;29;20293;-81
2022/03/03 01:41:35;;;;;;;107.95;50.28;;;0.10;99.90;;;;;;4910000;29;20064;-81
2022/03/03 01:44:01;;;;;;;102.78;49.08;;;0.00;99.90;;;;;;4895010;29;20044;-82
2022/03/03 01:46:27;;;;;;;101.30;50.53;;;-0.10;99.90;;;;;;4910946;29;20041;-80
2022/03/03 01:48:53;;;;;;;108.85;51.63;;;-0.10;99.90;;;;;;4879975;29;20531;-81
2022/03/03 01:51:18;;;;;;;110.10;52.80;;;-0.10;99.90;;;;;;4880042;29;20040;-81
2022/03/03 01:53:44;;;;;;;105.78;50.30;;;-0.20;99.90;;;;;;4895076;29;20055;-81
2022/03/03 01:56:10;;;;;;;104.07;49.67;;;-0.20;99.90;;;;;;4894823;29;20083;-81
2022/03/03 01:58:37;;;;;;;101.40;52.30;;;-0.30;99.90;;;;;;4880098;29;20061;-80
2022/03/03 02:01:03;;;;;;;102.20;47.95;;;-0.30;99.90;;;;;;4878801;29;20044;-81
2022/03/03 02:03:28;;;;;;;102.97;50.95;;;-0.30;99.90;;;;;;4880165;29;20108;-81
2022/03/03 02:05:54;;;;;;;99.63;48.10;;;-0.40;99.90;;;;;;4911042;29;20049;-81
2022/03/03 02:08:20;;;;;;;108.63;51.95;;;-0.40;99.90;;;;;;4894610;29;20055;-81
2022/03/03 02:10:45;;;;;;;103.20;50.42;;;-0.40;99.90;;;;;;4879459;29;20052;-81
2022/03/03 02:13:11;;;;;;;111.15;50.47;;;-0.40;99.90;;;;;;4878585;29;20053;-81
2022/03/03 02:15:37;;;;;;;101.75;49.75;;;-0.40;99.90;;;;;;4881728;29;20140;-81
2022/03/03 02:18:03;;;;;;;103.72;50.08;;;-0.50;99.90;;;;;;4898238;29;20187;-80
2022/03/03 02:20:30;;;;;;;106.82;50.72;;;-0.50;99.90;;;;;;4897269;29;20048;-80
2022/03/03 02:22:57;;;;;;;119.13;52.17;;;-0.50;99.90;;;;;;4882759;29;20048;-81
2022/03/03 02:25:25;;;;;;;105.82;51.45;;;-0.60;99.90;;;;;;4897820;29;20080;-81
2022/03/03 02:27:52;;;;;;;103.55;50.30;;;-0.60;99.90;;;;;;4897106;29;20131;-81
2022/03/03 02:30:18;;;;;;;100.40;49.28;;;-0.60;99.90;;;;;;4882368;29;20385;-80
2022/03/03 02:32:44;;;;;;;106.82;49.83;;;-0.70;99.90;;;;;;4898222;29;20608;-80
2022/03/03 02:35:13;;;;;;;113.03;51.90;;;-0.70;99.90;;;;;;4897414;29;20064;-80
2022/03/03 02:37:42;;;;;;;104.63;48.65;;;0.00;99.90;;;;;;4897615;29;20083;-80
2022/03/03 02:40:11;;;;;;;96.47;48.13;;;-0.90;99.90;;;;;;4883181;29;20040;-81
2022/03/03 02:42:37;;;;;;;95.97;46.65;;;-0.80;99.90;;;;;;4880647;29;20044;-80
2022/03/03 02:45:04;;;;;;;101.82;49.90;;;-0.90;99.90;;;;;;4883485;29;20503;-80
2022/03/03 02:47:30;;;;;;;111.32;51.17;;;-1.00;99.90;;;;;;4898128;29;20135;-81
2022/03/03 02:49:56;;;;;;;108.05;50.13;;;-1.00;99.90;;;;;;4897367;29;20482;-80
2022/03/03 02:52:22;;;;;;;99.25;46.65;;;-1.00;99.90;;;;;;4896275;29;20111;-80
2022/03/03 02:54:47;;;;;;;104.55;48.72;;;-1.00;99.90;;;;;;4898146;29;20040;-80
2022/03/03 02:59:57;;;;;;;114.53;50.58;;;-1.20;99.90;;;;;;4897995;29;20047;-80
2022/03/03 03:02:23;;;;;;;101.50;48.80;;;-1.20;99.90;;;;;;4896081;29;20088;-80
2022/03/03 03:04:49;;;;;;;105.93;49.05;;;-1.20;99.90;;;;;;4898876;29;20095;-80
2022/03/03 03:07:14;;;;;;;105.80;50.72;;;-1.10;99.90;;;;;;4897712;29;20552;-80
2022/03/03 03:09:40;;;;;;;103.95;50.35;;;-1.00;99.90;;;;;;4882319;29;20040;-80
2022/03/03 03:12:06;;;;;;;100.80;46.42;;;-0.90;99.90;;;;;;4897988;29;20052;-80
2022/03/03 03:14:31;;;;;;;96.93;49.50;;;-0.90;99.90;;;;;;4897217;29;20047;-80
2022/03/03 03:16:57;;;;;;;108.20;50.28;;;-0.90;99.90;;;;;;4881211;29;20091;-80
2022/03/03 03:19:23;;;;;;;101.47;51.15;;;-0.90;99.90;;;;;;4897156;29;20075;-81
2022/03/03 03:21:48;;;;;;;114.90;52.40;;;-0.80;99.90;;;;;;4897435;29;20547;-81
2022/03/03 03:24:15;;;;;;;113.03;53.13;;;-0.70;99.90;;;;;;4896507;29;20050;-81
2022/03/03 03:26:40;;;;;;;109.38;52.83;;;-0.60;99.90;;;;;;4897332;29;20044;-81
2022/03/03 03:29:06;;;;;;;98.20;49.50;;;-0.50;99.90;;;;;;4897317;29;20480;-80
2022/03/03 03:31:35;;;;;;;102.72;52.35;;;-0.50;99.90;;;;;;4896620;29;20048;-80
2022/03/03 03:34:01;;;;;;;106.07;52.00;;;-1.10;99.90;;;;;;4881756;29;20055;-81
2022/03/03 03:36:26;;;;;;;97.32;50.10;;;-0.30;99.90;;;;;;4896923;29;20044;-81
2022/03/03 03:38:52;;;;;;;95.10;50.38;;;-0.30;99.90;;;;;;4896246;29;20044;-80
2022/03/03 03:41:18;;;;;;;100.15;51.50;;;-0.20;99.90;;;;;;4880939;29;20508;-80
2022/03/03 03:43:49;;;;;;;100.35;51.83;;;-0.20;99.90;;;;;;4896590;29;20690;-81
2022/03/03 03:46:15;;;;;;;93.85;48.95;;;-0.10;99.90;;;;;;4886348;29;20470;-80
2022/03/03 03:48:41;;;;;;;95.82;50.72;;;-0.20;99.90;;;;;;4931439;29;20126;-80
2022/03/03 03:51:06;;;;;;;92.90;49.03;;;-0.20;99.90;;;;;;4899878;29;20048;-81
2022/03/03 03:53:32;;;;;;;95.15;50.05;;;-0.20;99.90;;;;;;4914888;29;20058;-80
2022/03/03 03:55:58;;;;;;;95.90;49.53;;;-0.10;99.90;;;;;;4899174;29;20047;-80
2022/03/03 03:58:23;;;;;;;98.65;50.78;;;-0.10;99.90;;;;;;4899131;29;20051;-81
2022/03/03 04:00:49;;;;;;;98.35;52.03;;;-0.10;99.90;;;;;;4899145;29;20044;-81
2022/03/03 04:03:14;;;;;;;98.28;49.22;;;-0.10;99.90;;;;;;4914753;29;20051;-80
2022/03/03 04:05:40;;;;;;;91.22;48.30;;;-0.10;99.90;;;;;;4898631;29;20071;-80
2022/03/03 04:08:05;;;;;;;96.00;49.83;;;-0.10;99.90;;;;;;4899396;29;20087;-80
2022/03/03 04:10:31;;;;;;;96.38;47.63;;;0.00;99.90;;;;;;4914423;29;20134;-80
2022/03/03 04:12:58;;;;;;;95.88;46.45;;;0.00;99.90;;;;;;4898500;29;20151;-80
2022/03/03 04:15:24;;;;;;;88.90;46.70;;;0.00;99.90;;;;;;4914600;29;20052;-81
2022/03/03 04:17:50;;;;;;;93.50;49.42;;;-0.10;99.90;;;;;;4915089;29;20055;-80
2022/03/03 04:20:18;;;;;;;85.82;45.58;;;-0.10;99.90;;;;;;4897981;29;20620;-80
2022/03/03 04:22:44;;;;;;;85.45;45.40;;;-0.10;99.90;;;;;;4915136;29;20051;-80
2022/03/03 04:25:10;;;;;;;88.45;45.33;;;-0.10;99.90;;;;;;4898647;29;20186;-81
2022/03/03 04:27:37;;;;;;;82.63;44.25;;;-0.10;99.90;;;;;;4897950;29;20071;-80
2022/03/03 04:30:05;;;;;;;83.53;44.20;;;-0.20;99.90;;;;;;4898996;29;20150;-80
2022/03/03 04:32:31;;;;;;;82.20;44.58;;;-0.20;99.90;;;;;;4898861;29;20134;-80
2022/03/03 04:34:57;;;;;;;81.93;43.85;;;-0.20;99.90;;;;;;4897041;29;20150;-80
2022/03/03 04:37:22;;;;;;;80.95;44.17;;;-0.20;99.90;;;;;;4879210;29;20055;-80
2022/03/03 04:39:48;;;;;;;78.72;45.08;;;-0.30;99.90;;;;;;4880820;29;20041;-80
2022/03/03 04:42:14;;;;;;;76.93;44.88;;;-0.30;99.90;;;;;;4877693;29;20196;-80
2022/03/03 04:44:39;;;;;;;80.13;43.85;;;-0.40;99.90;;;;;;4896213;29;20044;-81
2022/03/03 04:47:06;;;;;;;81.90;45.03;;;-0.40;99.90;;;;;;4895506;29;20056;-80
2022/03/03 04:49:31;;;;;;;81.60;44.08;;;-0.40;99.90;;;;;;4894644;29;20044;-80
2022/03/03 04:51:57;;;;;;;82.38;44.40;;;-0.40;99.90;;;;;;4895723;29;20055;-80
2022/03/03 04:54:23;;;;;;;84.07;45.72;;;-0.40;99.90;;;;;;4894921;29;20048;-80
2022/03/03 04:56:49;;;;;;;75.97;42.80;;;-0.40;99.90;;;;;;4878851;29;20134;-81
2022/03/03 04:59:14;;;;;;;84.75;45.05;;;-0.40;99.90;;;;;;4894923;29;20044;-80
2022/03/03 05:01:40;;;;;;;90.18;47.30;;;-0.40;99.90;;;;;;4895592;29;20055;-80
2022/03/03 05:04:06;;;;;;;79.82;43.20;;;-0.40;99.90;;;;;;4894756;29;20522;-80
2022/03/03 05:06:31;;;;;;;84.20;43.22;;;-0.40;99.90;;;;;;4879280;29;20051;-80
2022/03/03 05:08:57;;;;;;;80.05;43.95;;;-0.50;99.90;;;;;;4895075;29;20080;-79
2022/03/03 05:11:23;;;;;;;78.43;41.90;;;-0.50;99.90;;;;;;4879071;29;20563;-80
2022/03/03 05:13:48;;;;;;;74.57;43.50;;;-0.50;99.90;;;;;;4894759;29;20493;-80
2022/03/03 05:16:14;;;;;;;79.45;43.38;;;-0.50;99.90;;;;;;4878163;29;20056;-80
2022/03/03 05:18:40;;;;;;;81.72;43.42;;;-0.50;99.90;;;;;;4895328;29;20040;-80
2022/03/03 05:21:05;;;;;;;73.25;42.03;;;-0.50;99.90;;;;;;4879399;29;20095;-80
2022/03/03 05:23:31;;;;;;;76.25;41.33;;;-0.50;99.90;;;;;;4894526;29;20048;-80
2022/03/03 05:25:57;;;;;;;75.55;42.72;;;-0.30;99.90;;;;;;4860436;29;20536;-80
2022/03/03 05:28:23;;;;;;;78.63;41.15;;;-0.70;99.90;;;;;;4878686;29;20134;-81
2022/03/03 05:30:48;;;;;;;76.53;42.80;;;-0.80;99.90;;;;;;4878747;29;20049;-80
2022/03/03 05:33:14;;;;;;;76.82;42.80;;;-0.70;99.90;;;;;;4894596;29;20055;-80
2022/03/03 05:35:40;;;;;;;73.97;43.08;;;-0.70;99.90;;;;;;4895317;29;20492;-80
2022/03/03 05:38:06;;;;;;;78.32;42.42;;;-0.70;99.90;;;;;;4878327;29;20048;-80
2022/03/03 05:40:32;;;;;;;77.10;42.10;;;-0.70;99.90;;;;;;4911726;29;20099;-80
2022/03/03 05:42:58;;;;;;;75.85;41.85;;;-0.70;99.90;;;;;;4894954;29;20062;-80
2022/03/03 05:45:24;;;;;;;75.05;42.10;;;-0.70;99.90;;;;;;4878089;29;20485;-80
2022/03/03 05:47:51;;;;;;;81.40;42.78;;;-0.80;99.90;;;;;;4910280;29;20575;-80
2022/03/03 05:50:17;;;;;;;79.07;42.28;;;-0.80;99.90;;;;;;4894459;29;20044;-80
2022/03/03 05:52:43;;;;;;;78.05;43.30;;;-0.80;99.90;;;;;;4894446;29;20108;-80
2022/03/03 05:55:09;;;;;;;80.47;44.45;;;-0.80;99.90;;;;;;4894843;29;20500;-80
2022/03/03 05:57:41;;;;;;;75.95;43.42;;;-0.80;99.90;;;;;;4894022;29;20091;-80
2022/03/03 06:00:12;;;;;;;81.45;44.08;;;-0.90;99.90;;;;;;4894121;29;20408;-80
2022/03/03 06:02:41;;;;;;;74.13;42.90;;;-0.90;99.90;;;;;;4895254;29;20052;-80
2022/03/03 06:05:08;;;;;;;84.32;43.85;;;-0.90;99.90;;;;;;4879583;29;20115;-80
2022/03/03 06:07:36;;;;;;;80.22;43.85;;;-0.90;99.90;;;;;;4894669;29;20135;-80
2022/03/03 06:10:04;;;;;;;80.50;44.22;;;-0.90;99.90;;;;;;4879152;29;20091;-80
2022/03/03 06:12:29;;;;;;;78.68;43.90;;;-0.90;99.90;;;;;;4893252;29;20052;-80
2022/03/03 06:15:00;;;;;;;78.72;44.20;;;-0.80;99.90;;;;;;4895479;29;20051;-80
2022/03/03 06:17:25;;;;;;;80.78;44.80;;;-0.80;99.90;;;;;;4891251;29;20053;-80
2022/03/03 06:19:52;;;;;;;82.13;43.22;;;-0.80;99.90;;;;;;4875960;29;20053;-80
2022/03/03 06:22:19;;;;;;;82.75;45.28;;;-0.80;99.90;;;;;;4891301;29;20405;-80
2022/03/03 06:24:45;;;;;;;79.75;43.35;;;-0.80;99.90;;;;;;4892484;29;20139;-80
2022/03/03 06:27:12;;;;;;;82.00;45.47;;;-0.80;99.90;;;;;;4889552;29;20049;-80
2022/03/03 06:29:39;;;;;;;86.78;46.80;;;-0.70;99.90;;;;;;4895823;29;20100;-80
2022/03/03 06:32:05;;;;;;;85.43;45.47;;;-0.70;99.90;;;;;;4894414;29;20068;-79
2022/03/03 06:34:31;;;;;;;89.40;46.10;;;-0.70;99.90;;;;;;4894474;29;20067;-80
2022/03/03 06:36:56;;;;;;;89.03;46.45;;;-0.70;99.90;;;;;;4890017;29;20500;-80
2022/03/03 06:39:22;;;;;;;81.47;43.83;;;-0.70;99.90;;;;;;4878854;29;20055;-80
2022/03/03 06:41:48;;;;;;;83.45;45.17;;;-0.60;99.90;;;;;;4893907;29;20048;-80
2022/03/03 06:44:14;;;;;;;83.63;44.22;;;-0.60;99.90;;;;;;4877865;29;20044;-80
2022/03/03 06:46:40;;;;;;;80.50;44.63;;;-0.60;99.90;;;;;;4895206;29;20036;-80
2022/03/03 06:49:06;;;;;;;91.10;46.13;;;-0.60;99.90;;;;;;4893949;29;20485;-80
2022/03/03 06:51:41;;;;;;;85.88;45.92;;;-0.60;99.90;;;;;;4878384;29;20059;-80
2022/03/03 06:54:11;;;;;;;85.53;45.50;;;-0.50;99.90;;;;;;4894301;29;20843;-79
2022/03/03 06:56:46;;;;;;;82.78;46.10;;;0.00;99.90;;;;;;4909062;29;20057;-80
2022/03/03 06:59:15;;;;;;;94.05;47.25;;;-0.40;99.90;;;;;;4893124;29;20044;-80
2022/03/03 07:01:42;;;;;;;87.93;47.55;;;-0.40;99.90;;;;;;4897405;29;20100;-80
2022/03/03 07:04:09;;;;;;;85.10;46.78;;;-0.40;99.90;;;;;;4897319;29;20036;-80
2022/03/03 07:06:35;;;;;;;87.85;47.78;;;-0.40;99.90;;;;;;4913676;29;20138;-80
2022/03/03 07:09:01;;;;;;;92.85;46.55;;;-0.30;99.90;;;;;;4896161;29;20393;-80
2022/03/03 07:11:29;;;;;;;83.22;47.13;;;-0.30;99.90;;;;;;4897063;29;20048;-80
2022/03/03 07:13:58;;;;;;;87.30;47.35;;;-0.30;99.90;;;;;;4893952;29;20484;-80
2022/03/03 07:16:41;;;;;;;91.90;47.50;;;-0.20;99.90;;;;;;4893143;29;20060;-81
2022/03/03 07:19:20;;;;;;;;;;;-0.20;99.90;;;;;;4894193;29;20467;-80
2022/03/03 07:21:48;;;;;;;82.40;44.78;;;-0.20;99.90;;;;;;4894094;29;20387;-81
2022/03/03 07:24:28;;;;;;;81.80;44.65;;;-0.10;99.90;;;;;;4893642;29;20067;-82
2022/03/03 07:26:58;;;;;;;84.88;45.47;;;-0.10;99.90;;;;;;4878382;29;20519;-81
2022/03/03 07:29:28;;;;;;;90.03;47.03;;;0.00;99.90;;;;;;4892739;29;20108;-81
2022/03/03 07:31:56;;;;;;;88.38;47.25;;;0.80;99.90;;;;;;4877912;29;20063;-81
2022/03/03 07:34:31;;;;;;;84.57;47.35;;;0.90;99.90;;;;;;4877669;29;20135;-81
2022/03/03 07:37:03;;;;;;;86.13;46.53;;;0.10;99.90;;;;;;4877560;29;20476;-81
2022/03/03 07:39:40;;;;;;;86.35;46.65;;;0.10;99.90;;;;;;4893648;29;20056;-81
2022/03/03 07:42:11;;;;;;;79.80;44.83;;;0.20;99.90;;;;;;4892853;29;20060;-80
2022/03/03 07:44:37;;;;;;;81.63;43.95;;;0.30;99.90;;;;;;4877607;29;20119;-81
2022/03/03 07:47:03;;;;;;;80.75;45.15;;;0.30;99.90;;;;;;4886440;29;20448;-81
2022/03/03 07:49:30;;;;;;;79.88;44.00;;;0.70;99.90;;;;;;4896580;29;20051;-81
2022/03/03 07:51:58;;;;;;;75.05;45.50;;;0.40;99.90;;;;;;4895401;29;20424;-81
2022/03/03 07:54:24;;;;;;;85.15;45.30;;;0.50;99.90;;;;;;4896066;29;20048;-80
2022/03/03 07:56:55;;;;;;;79.30;44.72;;;1.40;99.90;;;;;;4911078;29;20051;-81
2022/03/03 07:59:25;;;;;;;78.20;43.17;;;0.50;99.90;;;;;;4892696;29;20437;-80
2022/03/03 08:01:54;;;;;;;75.43;44.53;;;0.60;99.90;;;;;;4913654;29;20051;-81
2022/03/03 08:04:23;;;;;;;80.10;44.10;;;0.70;99.90;;;;;;4891363;29;20059;-82
2022/03/03 08:06:52;;;;;;;77.78;42.85;;;0.70;99.90;;;;;;4908978;29;20060;-80
2022/03/03 08:09:20;;;;;;;73.70;43.47;;;0.90;99.90;;;;;;4895464;29;20126;-80
2022/03/03 08:11:47;;;;;;;73.43;42.67;;;0.90;99.90;;;;;;4895248;29;20047;-81
2022/03/03 08:14:15;;;;;;;72.50;42.08;;;0.90;99.90;;;;;;4894693;29;20036;-81
2022/03/03 08:16:44;;;;;;;74.00;42.33;;;0.90;99.90;;;;;;4895752;29;20052;-81
2022/03/03 08:19:10;;;;;;;72.20;43.35;;;1.00;99.90;;;;;;4894702;29;20349;-81
2022/03/03 08:21:37;;;;;;;75.50;41.45;;;1.00;99.90;;;;;;4895297;29;20425;-82
2022/03/03 08:24:03;;;;;;;75.85;42.35;;;1.10;99.90;;;;;;4892938;29;20036;-82
2022/03/03 08:26:30;;;;;;;71.05;41.47;;;1.10;99.90;;;;;;4893939;29;20040;-82
2022/03/03 08:28:56;;;;;;;72.93;41.33;;;1.20;99.90;;;;;;4895696;29;20051;-81
2022/03/03 08:31:32;;;;;;;75.50;43.60;;;1.30;99.90;;;;;;4910295;29;20048;-81
2022/03/03 08:34:13;;;;;;;62.22;38.25;;;1.30;99.90;;;;;;4894730;29;20485;-81
2022/03/03 08:36:54;;;;;;;73.38;40.40;;;1.40;99.90;;;;;;4892275;29;20059;-81
2022/03/03 08:39:26;;;;;;;70.68;41.35;;;1.40;99.90;;;;;;4892144;29;20048;-81
2022/03/03 08:41:57;;;;;;;69.28;40.15;;;1.50;99.90;;;;;;4893482;29;20047;-82
2022/03/03 08:44:26;;;;;;;65.65;41.83;;;1.60;99.90;;;;;;4907989;29;20052;-81
2022/03/03 08:46:54;;;;;;;70.10;40.65;;;2.00;99.90;;;;;;4895489;29;20054;-82
2022/03/03 08:49:20;;;;;;;66.75;40.25;;;1.80;99.90;;;;;;4891762;29;20044;-81
2022/03/03 08:51:46;;;;;;;71.22;40.60;;;1.90;99.90;;;;;;4894702;29;20075;-81
2022/03/03 08:54:13;;;;;;;67.25;39.25;;;2.00;99.90;;;;;;4894644;29;20110;-82
2022/03/03 08:56:39;;;;;;;66.55;40.63;;;2.10;99.90;;;;;;4910281;29;20075;-81
2022/03/03 08:59:14;;;;;;;62.50;40.17;;;2.10;99.90;;;;;;4894404;29;20091;-82
2022/03/03 09:01:40;;;;;;;65.70;39.85;;;2.10;99.90;;;;;;4906672;29;20071;-82
2022/03/03 09:04:06;;;;;;;59.10;37.35;;;2.20;99.90;;;;;;4909700;29;20064;-81
2022/03/03 09:06:32;;;;;;;64.05;38.55;;;2.30;99.90;;;;;;4909783;29;20062;-81
2022/03/03 09:09:04;;;;;;;60.45;37.65;;;2.40;99.90;;;;;;4906920;29;20043;-82
2022/03/03 09:11:30;;;;;;;55.30;36.03;;;2.50;99.90;;;;;;4892772;29;20072;-83
2022/03/03 09:13:55;;;;;;;56.38;37.00;;;3.80;99.90;;;;;;4890442;29;20087;-81
2022/03/03 09:16:21;;;;;;;60.35;36.55;;;2.60;99.90;;;;;;4887956;29;20084;-81
2022/03/03 09:18:48;;;;;;;60.95;36.10;;;2.70;99.90;;;;;;4894441;29;20139;-81
2022/03/03 09:21:14;;;;;;;57.20;34.60;;;2.80;99.90;;;;;;4910186;29;20155;-81
2022/03/03 09:23:42;;;;;;;56.95;36.10;;;2.90;99.90;;;;;;4910098;29;20044;-81
2022/03/03 09:26:09;;;;;;;55.35;35.60;;;2.90;99.90;;;;;;4894157;29;20051;-81
2022/03/03 09:28:35;;;;;;;55.83;34.25;;;3.00;99.90;;;;;;4894763;29;20058;-81
2022/03/03 09:31:12;;;;;;;56.97;35.67;;;3.20;99.90;;;;;;4910096;29;20411;-81
2022/03/03 09:33:38;;;;;;;54.85;33.38;;;3.20;99.90;;;;;;4910396;29;20454;-81
2022/03/03 09:36:04;;;;;;;50.67;32.65;;;3.30;99.90;;;;;;4894521;29;20056;-81
2022/03/03 09:38:30;;;;;;;50.20;32.17;;;3.40;99.90;;;;;;4893611;29;20480;-81
2022/03/03 09:40:56;;;;;;;48.50;32.30;;;3.50;99.90;;;;;;4894436;29;20123;-81
2022/03/03 09:43:21;;;;;;;49.08;32.80;;;3.60;99.90;;;;;;4893642;29;20107;-82
2022/03/03 09:45:47;;;;;;;47.88;31.42;;;3.70;99.90;;;;;;4910324;29;20054;-81
2022/03/03 09:48:13;;;;;;;55.42;31.88;;;3.80;99.90;;;;;;4909541;29;20432;-81
2022/03/03 09:50:41;;;;;;;43.90;29.27;;;3.90;99.90;;;;;;4908426;29;20047;-81
2022/03/03 09:53:13;;;;;;;46.13;28.92;;;4.00;99.90;;;;;;4891615;29;20091;-81
2022/03/03 09:55:40;;;;;;;47.33;30.42;;;4.60;99.90;;;;;;4909019;29;20048;-81
2022/03/03 09:58:07;;;;;;;38.70;26.88;;;4.60;99.90;;;;;;4910494;29;20052;-82
2022/03/03 10:00:37;;;;;;;38.95;26.20;;;4.40;99.90;;;;;;4894460;29;20083;-81
2022/03/03 10:03:13;;;;;;;40.20;26.35;;;4.40;99.90;;;;;;4911900;29;20070;-82
2022/03/03 10:05:45;;;;;;;42.03;26.15;;;4.70;99.90;;;;;;4898001;29;20107;-81
2022/03/03 10:08:15;;;;;;;36.50;24.87;;;4.60;99.90;;;;;;4930547;29;20110;-81
2022/03/03 10:10:43;;;;;;;45.70;25.10;;;4.70;99.90;;;;;;4917036;29;20055;-82
2022/03/03 10:13:09;;;;;;;40.45;26.00;;;5.20;99.90;;;;;;4899848;29;20443;-81
2022/03/03 10:15:36;;;;;;;33.65;23.55;;;4.90;99.90;;;;;;4901512;29;20567;-81
2022/03/03 10:18:12;;;;;;;35.22;23.38;;;5.00;99.90;;;;;;4901500;29;20063;-83
2022/03/03 10:20:54;;;;;;;42.53;24.60;;;5.10;99.90;;;;;;4916522;29;20048;-82
2022/03/03 10:23:27;;;;;;;35.78;23.90;;;5.30;99.90;;;;;;4900962;29;20051;-82
2022/03/03 10:25:55;;;;;;;33.83;24.08;;;5.70;99.90;;;;;;4900268;29;20069;-82
2022/03/03 10:28:24;;;;;;;33.03;21.33;;;5.50;99.90;;;;;;4916157;29;20519;-82
2022/03/03 10:30:54;;;;;;;30.60;19.85;;;6.20;99.90;;;;;;4916532;29;20664;-82
2022/03/03 10:33:22;;;;;;;28.95;19.27;;;5.70;99.90;;;;;;4900193;29;20043;-83
2022/03/03 10:36:12;;;;;;;28.23;19.55;;;5.70;99.90;;;;;;4908696;29;20054;-82
2022/03/03 10:38:43;;;;;;;25.58;19.23;;;5.80;99.90;;;;;;4895054;29;20175;-83
2022/03/03 10:41:26;;;;;;;30.73;20.02;;;6.40;99.90;;;;;;4893127;29;20441;-83
2022/03/03 10:43:52;;;;;;;30.20;19.50;;;5.90;99.90;;;;;;4878760;29;20053;-83
2022/03/03 10:46:17;;;;;;;30.85;20.80;;;6.00;99.90;;;;;;4894627;29;20378;-83
2022/03/03 10:48:43;;;;;;;31.20;20.70;;;6.30;99.90;;;;;;4878267;29;20111;-84
2022/03/03 10:51:13;;;;;;;31.23;19.70;;;7.10;99.90;;;;;;4878931;29;20056;-83
2022/03/03 10:53:38;;;;;;;29.30;19.73;;;7.20;99.90;;;;;;4878141;29;20104;-84
2022/03/03 10:56:07;;;;;;;25.50;18.25;;;6.30;99.90;;;;;;4894018;29;20113;-85
2022/03/03 10:58:44;;;;;;;27.20;18.05;;;7.00;99.90;;;;;;4894749;29;20056;-83
2022/03/03 11:01:10;;;;;;;31.45;19.20;;;6.40;99.90;;;;;;4893339;29;20048;-84
2022/03/03 11:03:36;;;;;;;26.27;18.83;;;6.50;99.90;;;;;;4894462;29;20099;-84
2022/03/03 11:06:03;;;;;;;28.60;18.92;;;6.50;99.90;;;;;;4894005;29;20059;-83
2022/03/03 11:08:35;;;;;;;30.42;21.92;;;6.60;99.90;;;;;;4893357;29;20390;-83
2022/03/03 11:11:03;;;;;;;43.33;22.63;;;6.50;99.90;;;;;;4903966;29;20055;-84
2022/03/03 11:13:32;;;;;;;33.25;21.20;;;6.80;99.90;;;;;;4895494;29;20065;-84
2022/03/03 11:15:58;;;;;;;35.45;22.60;;;6.80;99.90;;;;;;4912060;29;20070;-82
2022/03/03 11:18:27;;;;;;;31.13;20.95;;;6.80;99.90;;;;;;4911673;29;20052;-81
2022/03/03 11:20:53;;;;;;;35.38;20.55;;;7.30;99.90;;;;;;4912650;29;20196;-83
2022/03/03 11:23:39;;;;;;;32.58;21.05;;;6.80;99.90;;;;;;4911516;29;20100;-82
2022/03/03 11:26:08;;;;;;;33.75;21.98;;;6.90;99.90;;;;;;4907170;29;20408;-83
2022/03/03 11:28:35;;;;;;;28.73;20.15;;;6.90;99.90;;;;;;4912387;29;20434;-82
2022/03/03 11:31:22;;;;;;;35.97;24.45;;;7.00;99.90;;;;;;4895347;29;20055;-83
2022/03/03 11:33:48;;;;;;;39.70;25.85;;;7.10;99.90;;;;;;4897393;29;20666;-84
2022/03/03 11:36:20;;;;;;;34.88;23.95;;;7.00;99.90;;;;;;4895811;29;20135;-83
2022/03/03 11:38:52;;;;;;;35.60;23.93;;;7.00;99.90;;;;;;4912310;29;20048;-83
2022/03/03 11:41:23;;;;;;;34.53;22.53;;;7.20;99.90;;;;;;4911566;29;20375;-83
2022/03/03 11:44:00;;;;;;;32.20;22.52;;;8.00;99.90;;;;;;4896093;29;20446;-83
2022/03/03 11:46:47;;;;;;;33.65;23.25;;;7.10;99.90;;;;;;4911838;29;20488;-83
2022/03/03 11:49:20;;;;;;;35.33;23.95;;;7.10;99.90;;;;;;4911794;29;20044;-83
2022/03/03 11:51:47;;;;;;;;;;;7.70;99.90;;;;;;4912018;29;20052;-82
2022/03/03 11:54:14;;;;;;;31.80;21.13;;;7.20;99.90;;;;;;4897122;29;19923;-81
2022/03/03 11:57:02;;;;;;;36.45;22.88;;;7.20;99.90;;;;;;4911189;29;20052;-83
2022/03/03 11:59:33;;;;;;;30.75;22.10;;;7.30;99.90;;;;;;4911141;29;20058;-82
2022/03/03 12:02:01;;;;;;;29.65;20.23;;;7.80;99.90;;;;;;4895635;29;20107;-83
2022/03/03 12:04:27;;;;;;;31.05;21.48;;;7.40;99.90;;;;;;4908327;29;20052;-83
2022/03/03 12:06:54;;;;;;;33.25;21.35;;;7.40;99.90;;;;;;4896315;29;20460;-82
2022/03/03 12:09:26;;;;;;;28.95;21.45;;;7.40;99.90;;;;;;4910662;29;20052;-82
2022/03/03 12:12:12;;;;;;;29.15;21.25;;;7.50;99.90;;;;;;4895331;29;20040;-82
2022/03/03 12:14:49;;;;;;;34.33;22.48;;;7.50;99.90;;;;;;4895653;29;20067;-82
2022/03/03 12:17:41;;;;;;;31.48;21.35;;;7.50;99.90;;;;;;4909225;29;20063;-82
2022/03/03 12:20:34;;;;;;;37.10;22.42;;;7.60;99.90;;;;;;4893901;29;20052;-83
2022/03/03 12:23:07;;;;;;;32.08;21.40;;;7.60;99.90;;;;;;4895338;29;20739;-83
2022/03/03 12:25:55;;;;;;;27.70;19.65;;;7.70;99.90;;;;;;4893245;29;20044;-80
2022/03/03 12:28:27;;;;;;;29.33;21.05;;;7.70;99.90;;;;;;4891774;29;20092;-79
2022/03/03 12:30:54;;;;;;;30.67;20.63;;;7.70;99.90;;;;;;4910889;29;20048;-77
2022/03/03 12:33:28;;;;;;;31.65;22.05;;;7.80;99.90;;;;;;4911356;29;20538;-77
2022/03/03 12:36:00;;;;;;;30.05;20.67;;;7.80;99.90;;;;;;4909589;29;20100;-77
2022/03/03 12:38:27;;;;;;;31.70;21.83;;;8.00;99.90;;;;;;4909148;29;20052;-77